Time;durP1;ratioP1;P1;durP2;ratioP2;P2;SDS_P1;SDS_P2;PMS_P1;PMS_P2;Temp;Humidity;BMP_temperature;BMP_pressure;BME280_temperature;BME280_humidity;BME280_pressure;Samples;Min_cycle;Max_cycle;Signal;HPM_P1;HPM_P2
2022/11/07 00:00:07;;;;;;;;;;;9.10;99.90;;;;;;5093031;28;19920;-74
2022/11/07 00:02:33;;;;;;;;;;;9.20;99.90;;;;;;5090353;28;19961;-75
2022/11/07 00:05:00;;;;;;;;;;;9.20;99.90;;;;;;5093346;28;19912;-74
2022/11/07 00:07:25;;;;;;;;;;;9.20;99.90;;;;;;5093227;28;19959;-76
2022/11/07 00:09:51;;;;;;;;;;;9.20;99.90;;;;;;5092832;28;19988;-74
2022/11/07 00:12:16;;;;;;;;;;;9.30;99.90;;;;;;5092314;28;20277;-75
2022/11/07 00:14:42;;;;;;;;;;;9.40;99.90;;;;;;5091458;28;19934;-74
2022/11/07 00:17:08;;;;;;;;;;;9.40;99.90;;;;;;5093295;28;19971;-75
2022/11/07 00:19:33;;;;;;;;;;;9.40;99.90;;;;;;5094437;28;19908;-75
2022/11/07 00:21:59;;;;;;;;;;;9.50;99.90;;;;;;5094402;28;20006;-75
2022/11/07 00:24:25;;;;;;;;;;;9.60;99.90;;;;;;5094318;28;20414;-76
2022/11/07 00:26:50;;;;;;;;;;;9.60;99.90;;;;;;5102458;28;19935;-75
2022/11/07 00:29:17;;;;;;;;;;;9.70;99.90;;;;;;5108961;28;19942;-72
2022/11/07 00:31:43;;;;;;;;;;;9.70;99.90;;;;;;5092934;28;20269;-73
2022/11/07 00:34:09;;;;;;;;;;;9.80;99.90;;;;;;5095106;28;19912;-73
2022/11/07 00:36:35;;;;;;;;;;;9.80;99.90;;;;;;5094187;28;19931;-74
2022/11/07 00:39:00;;;;;;;;;;;9.90;99.90;;;;;;5094550;28;19915;-74
2022/11/07 00:41:26;;;;;;;;;;;10.00;99.90;;;;;;5094443;28;19915;-75
2022/11/07 00:43:52;;;;;;;;;;;10.00;99.90;;;;;;5093635;28;19919;-74
2022/11/07 00:46:18;;;;;;;;;;;10.00;99.90;;;;;;5094102;28;19982;-73
2022/11/07 00:48:44;;;;;;;;;;;10.10;99.90;;;;;;5093896;28;20327;-74
2022/11/07 00:51:11;;;;;;;;;;;10.10;99.90;;;;;;5094733;28;19908;-73
2022/11/07 00:53:37;;;;;;;;;;;10.10;99.90;;;;;;5093580;28;19912;-73
2022/11/07 00:56:03;;;;;;;;;;;10.10;99.90;;;;;;5094506;28;20007;-73
2022/11/07 00:58:28;;;;;;;;;;;10.10;99.90;;;;;;5093301;28;19912;-72
2022/11/07 01:00:54;;;;;;;;;;;10.10;99.90;;;;;;5094087;28;19961;-73
2022/11/07 01:06:04;;;;;;;;;;;10.20;99.90;;;;;;5093937;28;19915;-74
2022/11/07 01:08:30;;;;;;;;;;;10.30;99.90;;;;;;5094017;28;19991;-74
2022/11/07 01:10:56;;;;;;;;;;;10.20;99.90;;;;;;5093953;28;19908;-75
2022/11/07 01:13:22;;;;;;;;;;;10.30;99.90;;;;;;5093720;28;19918;-74
2022/11/07 01:15:48;;;;;;;;;;;10.20;99.90;;;;;;5093365;28;20003;-73
2022/11/07 01:18:14;;;;;;;;;;;10.30;99.90;;;;;;5093691;28;19912;-73
2022/11/07 01:20:40;;;;;;;;;;;10.30;99.90;;;;;;5093587;28;19912;-74
2022/11/07 01:23:06;;;;;;;;;;;10.30;99.90;;;;;;5092184;28;19931;-73
2022/11/07 01:25:31;;;;;;;;;;;10.30;99.90;;;;;;5093323;28;19908;-74
2022/11/07 01:27:57;;;;;;;;;;;10.40;99.90;;;;;;5093666;28;19916;-73
2022/11/07 01:30:23;;;;;;;;;;;10.40;99.90;;;;;;5093638;28;19916;-74
2022/11/07 01:32:48;;;;;;;;;;;10.40;99.90;;;;;;5092967;28;19912;-73
2022/11/07 01:35:14;;;;;;;;;;;10.50;99.90;;;;;;5093718;28;20281;-73
2022/11/07 01:37:40;;;;;;;;;;;10.50;99.90;;;;;;5092757;28;19908;-73
2022/11/07 01:40:06;;;;;;;;;;;10.50;99.90;;;;;;5093468;28;19908;-73
2022/11/07 01:42:32;;;;;;;;;;;10.50;99.90;;;;;;5093164;28;19908;-75
2022/11/07 01:44:58;;;;;;;;;;;10.60;99.90;;;;;;5093141;28;19998;-73
2022/11/07 01:47:27;;;;;;;;;;;10.60;99.90;;;;;;5093112;28;19958;-75
2022/11/07 01:49:52;;;;;;;;;;;10.60;99.90;;;;;;5092662;28;19908;-74
2022/11/07 01:52:35;;;;;;;;;;;10.60;99.90;;;;;;5093397;28;20264;-75
2022/11/07 01:55:01;;;;;;;;;;;10.60;99.90;;;;;;5093317;28;19919;-74
2022/11/07 01:57:29;;;;;;;;;;;10.60;99.90;;;;;;5092551;28;19908;-75
2022/11/07 01:59:56;;;;;;;;;;;10.70;99.90;;;;;;5093695;28;20347;-75
2022/11/07 02:02:23;;;;;;;;;;;10.70;99.90;;;;;;5094234;28;19912;-74
2022/11/07 02:04:49;;;;;;;;;;;10.70;99.90;;;;;;5092451;28;19922;-75
2022/11/07 02:07:19;;;;;;;;;;;10.70;99.90;;;;;;5092881;28;20006;-75
2022/11/07 02:09:44;;;;;;;;;;;10.80;99.90;;;;;;5092654;28;19908;-74
2022/11/07 02:12:10;;;;;;;;;;;10.80;99.90;;;;;;5091733;28;20322;-75
2022/11/07 02:14:36;;;;;;;;;;;10.80;99.90;;;;;;5092272;28;20405;-75
2022/11/07 02:17:01;;;;;;;;;;;10.80;99.90;;;;;;5092616;28;19999;-75
2022/11/07 02:19:47;;;;;;;;;;;10.90;99.90;;;;;;5091777;28;19908;-75
2022/11/07 02:22:16;;;;;;;;;;;10.80;99.90;;;;;;5090898;28;19908;-74
2022/11/07 02:24:41;;;;;;;;;;;10.90;99.90;;;;;;5092152;28;19908;-74
2022/11/07 02:27:12;;;;;;;;;;;10.90;99.90;;;;;;5093120;28;19938;-75
2022/11/07 02:29:39;;;;;;;;;;;10.90;99.90;;;;;;5091845;28;20369;-75
2022/11/07 02:32:06;;;;;;;;;;;11.00;99.90;;;;;;5092657;28;19918;-75
2022/11/07 02:34:32;;;;;;;;;;;11.10;99.90;;;;;;5092996;28;19965;-75
2022/11/07 02:36:58;;;;;;;;;;;11.10;99.90;;;;;;5092288;28;19916;-75
2022/11/07 02:39:24;;;;;;;;;;;11.10;99.90;;;;;;5092802;28;19908;-75
2022/11/07 02:41:50;;;;;;;;;;;11.20;99.90;;;;;;5092255;28;19908;-74
2022/11/07 02:44:16;;;;;;;;;;;11.20;99.90;;;;;;5092774;28;20012;-74
2022/11/07 02:46:41;;;;;;;;;;;11.20;99.90;;;;;;5092188;28;19931;-74
2022/11/07 02:49:07;;;;;;;;;;;11.30;99.90;;;;;;5092566;28;20414;-74
2022/11/07 02:51:32;;;;;;;;;;;11.30;99.90;;;;;;5094746;28;19913;-74
2022/11/07 02:53:58;;;;;;;;;;;11.40;99.90;;;;;;5095825;28;20277;-74
2022/11/07 02:56:23;;;;;;;;;;;11.40;99.90;;;;;;5092714;28;19908;-73
2022/11/07 02:58:51;;;;;;;;;;;11.40;99.90;;;;;;5092290;28;19947;-75
2022/11/07 03:01:17;;;;;;;;;;;11.40;99.90;;;;;;5092185;28;19966;-75
2022/11/07 03:03:44;;;;;;;;;;;11.50;99.90;;;;;;5090878;28;19943;-75
2022/11/07 03:06:11;;;;;;;;;;;11.50;99.90;;;;;;5092252;28;19908;-74
2022/11/07 03:08:37;;;;;;;;;;;11.50;99.90;;;;;;5094461;28;19908;-76
2022/11/07 03:11:03;;;;;;;;;;;11.40;99.90;;;;;;5096055;28;19914;-74
2022/11/07 03:13:28;;;;;;;;;;;11.50;99.90;;;;;;5096256;28;20376;-75
2022/11/07 03:15:54;;;;;;;;;;;11.50;99.90;;;;;;5095474;28;19958;-74
2022/11/07 03:18:20;;;;;;;;;;;11.50;99.90;;;;;;5096334;28;19952;-74
2022/11/07 03:20:46;;;;;;;;;;;11.50;99.90;;;;;;5095064;28;20336;-73
2022/11/07 03:23:12;;;;;;;;;;;11.60;99.90;;;;;;5096141;28;19912;-73
2022/11/07 03:25:37;;;;;;;;;;;11.70;99.90;;;;;;5094555;28;19912;-75
2022/11/07 03:28:03;;;;;;;;;;;11.70;99.90;;;;;;5096007;28;19908;-74
2022/11/07 03:30:29;;;;;;;;;;;11.80;99.90;;;;;;5095743;28;19912;-73
2022/11/07 03:32:54;;;;;;;;;;;11.80;99.90;;;;;;5095408;28;19927;-74
2022/11/07 03:35:20;;;;;;;;;;;11.80;99.90;;;;;;5095729;28;20289;-74
2022/11/07 03:37:46;;;;;;;;;;;11.80;99.90;;;;;;5094629;28;20383;-74
2022/11/07 03:40:12;;;;;;;;;;;11.80;99.90;;;;;;5095858;28;19915;-73
2022/11/07 03:42:38;;;;;;;;;;;11.90;99.90;;;;;;5097949;28;19912;-76
2022/11/07 03:45:04;;;;;;;;;;;11.90;99.90;;;;;;5099296;28;19908;-74
2022/11/07 03:47:32;;;;;;;;;;;12.00;99.90;;;;;;5095428;28;19916;-75
2022/11/07 03:49:58;;;;;;;;;;;12.00;99.90;;;;;;5095053;28;20002;-74
2022/11/07 03:52:23;;;;;;;;;;;12.00;99.90;;;;;;5095542;28;19943;-76
2022/11/07 03:54:49;;;;;;;;;;;12.10;99.90;;;;;;5094647;28;19919;-74
2022/11/07 03:57:14;;;;;;;;;;;12.10;99.90;;;;;;5095520;28;19908;-74
2022/11/07 03:59:40;;;;;;;;;;;12.00;99.90;;;;;;5094926;28;19920;-75
2022/11/07 04:02:05;;;;;;;;;;;12.00;99.90;;;;;;5095158;28;19908;-74
2022/11/07 04:04:31;;;;;;;;;;;12.00;99.90;;;;;;5093683;28;19908;-74
2022/11/07 04:06:56;;;;;;;;;;;12.00;99.90;;;;;;5094526;28;19916;-74
2022/11/07 04:09:22;;;;;;;;;;;12.00;99.90;;;;;;5095284;28;20267;-73
2022/11/07 04:17:19;;;;;;;;;;;12.00;99.90;;;;;;5094892;28;19957;-74
2022/11/07 04:19:48;;;;;;;;;;;12.10;99.90;;;;;;5093676;28;19908;-74
2022/11/07 04:22:14;;;;;;;;;;;12.10;99.90;;;;;;5095004;28;19909;-75
2022/11/07 04:24:40;;;;;;;;;;;12.10;99.90;;;;;;5094557;28;19908;-74
2022/11/07 04:29:51;;;;;;;;;;;12.10;99.90;;;;;;5094351;28;19914;-74
2022/11/07 04:32:17;;;;;;;;;;;12.10;99.90;;;;;;5094463;28;19912;-74
2022/11/07 04:34:42;;;;;;;;;;;12.10;99.90;;;;;;5094588;28;19919;-76
2022/11/07 04:37:08;;;;;;;;;;;12.10;99.90;;;;;;5094800;28;19912;-74
2022/11/07 04:39:33;;;;;;;;;;;12.20;99.90;;;;;;5094679;28;19908;-75
2022/11/07 04:41:59;;;;;;;;;;;12.20;99.90;;;;;;5094031;28;19912;-75
2022/11/07 04:44:24;;;;;;;;;;;12.20;99.90;;;;;;5094564;28;20350;-74
2022/11/07 04:46:50;;;;;;;;;;;12.20;99.90;;;;;;5093507;28;19908;-75
2022/11/07 04:49:17;;;;;;;;;;;12.20;99.90;;;;;;5093087;28;19915;-74
2022/11/07 04:51:43;;;;;;;;;;;12.20;99.90;;;;;;5094125;28;19912;-75
2022/11/07 04:54:12;;;;;;;;;;;12.20;99.90;;;;;;5094156;28;19920;-74
2022/11/07 04:56:38;;;;;;;;;;;12.30;99.90;;;;;;5094465;28;19955;-74
2022/11/07 04:59:04;;;;;;;;;;;12.30;99.90;;;;;;5093380;28;19944;-74
2022/11/07 05:01:29;;;;;;;;;;;12.30;99.90;;;;;;5093628;28;19981;-74
2022/11/07 05:03:55;;;;;;;;;;;12.30;99.90;;;;;;5093663;28;19919;-74
2022/11/07 05:06:21;;;;;;;;;;;12.40;99.90;;;;;;5094209;28;20410;-74
2022/11/07 05:08:46;;;;;;;;;;;12.40;99.90;;;;;;5093510;28;19908;-75
2022/11/07 05:11:12;;;;;;;;;;;12.40;99.90;;;;;;5094000;28;20282;-74
2022/11/07 05:13:37;;;;;;;;;;;12.40;99.90;;;;;;5093746;28;19966;-75
2022/11/07 05:16:03;;;;;;;;;;;12.40;99.90;;;;;;5093134;28;19914;-74
2022/11/07 05:18:29;;;;;;;;;;;12.40;99.90;;;;;;5093565;28;20365;-75
2022/11/07 05:20:55;;;;;;;;;;;12.40;99.90;;;;;;5092027;28;20002;-76
2022/11/07 05:23:21;;;;;;;;;;;12.40;99.90;;;;;;5093596;28;19916;-75
2022/11/07 05:25:48;;;;;;;;;;;12.40;99.90;;;;;;5093123;28;20365;-76
2022/11/07 05:28:32;;;;;;;;;;;12.40;99.90;;;;;;5093777;28;19960;-75
2022/11/07 05:30:58;;;;;;;;;;;12.30;99.90;;;;;;5091807;28;20418;-75
2022/11/07 05:33:24;;;;;;;;;;;12.30;99.90;;;;;;5093442;28;20384;-74
2022/11/07 05:35:50;;;;;;;;;;;12.30;99.90;;;;;;5091866;28;19912;-75
2022/11/07 05:38:15;;;;;;;;;;;12.40;99.90;;;;;;5092281;28;19999;-75
2022/11/07 05:40:41;;;;;;;;;;;12.40;99.90;;;;;;5093171;28;19941;-73
2022/11/07 05:43:08;;;;;;;;;;;12.40;99.90;;;;;;5092841;28;19904;-73
2022/11/07 05:45:36;;;;;;;;;;;12.40;99.90;;;;;;5093289;28;20003;-73
2022/11/07 05:48:03;;;;;;;;;;;12.40;99.90;;;;;;5092557;28;19908;-73
2022/11/07 05:50:29;;;;;;;;;;;12.40;99.90;;;;;;5093371;28;19912;-74
2022/11/07 05:52:55;;;;;;;;;;;12.30;99.90;;;;;;5092437;28;20349;-74
2022/11/07 05:55:21;;;;;;;;;;;12.30;99.90;;;;;;5093815;28;20283;-73
2022/11/07 05:57:46;;;;;;;;;;;12.40;99.90;;;;;;5093285;28;19908;-75
2022/11/07 06:00:12;;;;;;;;;;;12.40;99.90;;;;;;5092771;28;20356;-75
2022/11/07 06:02:38;;;;;;;;;;;12.50;99.90;;;;;;5092862;28;20261;-74
2022/11/07 06:05:04;;;;;;;;;;;12.50;99.90;;;;;;5092772;28;19915;-74
2022/11/07 06:07:33;;;;;;;;;;;12.50;99.90;;;;;;5092874;28;20024;-73
2022/11/07 06:09:58;;;;;;;;;;;12.50;99.90;;;;;;5092651;28;19951;-73
2022/11/07 06:12:24;;;;;;;;;;;12.50;99.90;;;;;;5092538;28;19955;-74
2022/11/07 06:14:49;;;;;;;;;;;12.50;99.90;;;;;;5092565;28;19913;-75
2022/11/07 06:17:15;;;;;;;;;;;12.50;99.90;;;;;;5092993;28;19961;-73
2022/11/07 06:19:40;;;;;;;;;;;12.50;99.90;;;;;;5092756;28;19962;-74
2022/11/07 06:22:06;;;;;;;;;;;12.50;99.90;;;;;;5092257;28;19908;-74
2022/11/07 06:24:32;;;;;;;;;;;12.50;99.90;;;;;;5091877;28;19909;-74
2022/11/07 06:26:57;;;;;;;;;;;12.50;99.90;;;;;;5090802;28;20393;-74
2022/11/07 06:29:23;;;;;;;;;;;12.50;99.90;;;;;;5092657;28;19908;-73
2022/11/07 06:31:48;;;;;;;;;;;12.50;99.90;;;;;;5092998;28;19912;-73
2022/11/07 06:34:14;;;;;;;;;;;12.50;99.90;;;;;;5092368;28;19919;-74
2022/11/07 06:36:39;;;;;;;;;;;12.50;99.90;;;;;;5092701;28;19990;-75
2022/11/07 06:39:05;;;;;;;;;;;12.60;99.90;;;;;;5091603;28;19911;-74
2022/11/07 06:41:30;;;;;;;;;;;12.60;99.90;;;;;;5092938;28;20342;-74
2022/11/07 06:43:56;;;;;;;;;;;12.60;99.90;;;;;;5095846;28;19961;-75
2022/11/07 06:46:22;;;;;;;;;;;12.70;99.90;;;;;;5096802;28;20002;-75
2022/11/07 06:48:47;;;;;;;;;;;12.60;99.90;;;;;;5095603;28;20015;-75
2022/11/07 06:51:13;;;;;;;;;;;12.60;99.90;;;;;;5096150;28;20361;-75
2022/11/07 06:53:39;;;;;;;;;;;12.70;99.90;;;;;;5095092;28;20284;-76
2022/11/07 06:56:06;;;;;;;;;;;12.70;99.90;;;;;;5095743;28;19920;-72
2022/11/07 06:58:31;;;;;;;;;;;12.70;99.90;;;;;;5096661;28;19908;-74
2022/11/07 07:01:00;;;;;;;;;;;12.70;99.90;;;;;;5095607;28;20326;-75
2022/11/07 07:03:26;;;;;;;;;;;12.70;99.90;;;;;;5096423;28;19912;-75
2022/11/07 07:05:51;;;;;;;;;;;12.80;99.90;;;;;;5094688;28;20345;-76
2022/11/07 07:08:17;;;;;;;;;;;12.80;99.90;;;;;;5095981;28;20257;-74
2022/11/07 07:10:43;;;;;;;;;;;12.90;99.90;;;;;;5096337;28;19908;-73
2022/11/07 07:13:09;;;;;;;;;;;12.90;99.90;;;;;;5095407;28;20002;-74
2022/11/07 07:15:35;;;;;;;;;;;12.90;99.90;;;;;;5094648;28;19913;-74
2022/11/07 07:18:01;;;;;;;;;;;12.90;99.90;;;;;;5095607;28;19915;-73
2022/11/07 07:20:27;;;;;;;;;;;12.80;99.90;;;;;;5096180;28;19951;-74
2022/11/07 07:22:53;;;;;;;;;;;12.80;99.90;;;;;;5095541;28;20008;-75
2022/11/07 07:25:18;;;;;;;;;;;12.90;99.90;;;;;;5095622;28;20268;-74
2022/11/07 07:27:44;;;;;;;;;;;12.90;99.90;;;;;;5096112;28;19908;-74
2022/11/07 07:30:10;;;;;;;;;;;13.00;99.90;;;;;;5095359;28;19908;-74
2022/11/07 07:32:35;;;;;;;;;;;13.00;99.90;;;;;;5095875;28;20320;-73
2022/11/07 07:35:01;;;;;;;;;;;13.00;99.90;;;;;;5095008;28;20261;-74
2022/11/07 07:37:27;;;;;;;;;;;13.00;99.90;;;;;;5095967;28;20384;-74
2022/11/07 07:39:52;;;;;;;;;;;13.00;99.90;;;;;;5095462;28;19991;-74
2022/11/07 07:42:18;;;;;;;;;;;13.00;99.90;;;;;;5093550;28;19924;-75
2022/11/07 07:44:43;;;;;;;;;;;12.90;99.90;;;;;;5094022;28;20349;-74
2022/11/07 07:47:09;;;;;;;;;;;13.00;99.90;;;;;;5094563;28;19912;-75
2022/11/07 07:49:34;;;;;;;;;;;13.10;99.90;;;;;;5095568;28;19908;-74
2022/11/07 07:52:00;;;;;;;;;;;13.00;99.90;;;;;;5094653;28;20022;-76
2022/11/07 07:54:26;;;;;;;;;;;13.00;99.90;;;;;;5094387;28;19912;-75
2022/11/07 07:56:51;;;;;;;;;;;13.10;99.90;;;;;;5095475;28;19950;-75
2022/11/07 07:59:17;;;;;;;;;;;13.10;99.90;;;;;;5094662;28;20340;-74
2022/11/07 08:01:42;;;;;;;;;;;13.10;99.90;;;;;;5095125;28;19989;-75
2022/11/07 08:04:08;;;;;;;;;;;13.10;99.90;;;;;;5094559;28;19912;-74
2022/11/07 08:06:35;;;;;;;;;;;13.10;99.90;;;;;;5094877;28;19915;-74
2022/11/07 08:09:01;;;;;;;;;;;13.10;99.90;;;;;;5094349;28;19947;-75
2022/11/07 08:11:27;;;;;;;;;;;13.10;99.90;;;;;;5095091;28;20020;-74
2022/11/07 08:13:53;;;;;;;;;;;13.10;99.90;;;;;;5076878;28;19913;-74
2022/11/07 08:16:18;;;;;;;;;;;13.10;99.90;;;;;;5093868;28;20327;-75
2022/11/07 08:18:44;;;;;;;;;;;13.10;99.90;;;;;;5094748;28;19908;-74
2022/11/07 08:21:09;;;;;;;;;;;13.10;99.90;;;;;;5095139;28;20265;-74
2022/11/07 08:23:35;;;;;;;;;;;13.20;99.90;;;;;;5097077;28;19915;-75
2022/11/07 08:26:03;;;;;;;;;;;13.20;99.90;;;;;;5094579;28;19909;-76
2022/11/07 08:28:30;;;;;;;;;;;13.20;99.90;;;;;;5094403;28;19962;-75
2022/11/07 08:31:05;;;;;;;;;;;13.20;99.90;;;;;;5094460;28;19993;-75
2022/11/07 08:33:31;;;;;;;;;;;13.30;99.90;;;;;;5093984;28;20376;-75
2022/11/07 08:35:59;;;;;;;;;;;13.30;99.90;;;;;;5093001;28;19912;-75
2022/11/07 08:38:25;;;;;;;;;;;13.30;99.90;;;;;;5093246;28;19947;-75
2022/11/07 08:40:51;;;;;;;;;;;13.30;99.90;;;;;;5093882;28;19947;-75
2022/11/07 08:43:17;;;;;;;;;;;13.40;99.90;;;;;;5093583;28;19972;-75
2022/11/07 08:45:43;;;;;;;;;;;13.30;99.90;;;;;;5080627;28;19915;-75
2022/11/07 08:48:08;;;;;;;;;;;13.30;99.90;;;;;;5093874;28;19912;-73
2022/11/07 08:50:34;;;;;;;;;;;13.30;99.90;;;;;;5093955;28;20088;-74
2022/11/07 08:53:00;;;;;;;;;;;13.40;99.90;;;;;;5093721;28;20424;-75
2022/11/07 08:55:25;;;;;;;;;;;13.40;99.90;;;;;;5093414;28;19964;-74
2022/11/07 08:57:51;;;;;;;;;;;13.40;99.90;;;;;;5093375;28;19912;-73
2022/11/07 09:00:16;;;;;;;;;;;13.50;99.90;;;;;;5093494;28;20005;-75
2022/11/07 09:02:42;;;;;;;;;;;13.50;99.90;;;;;;5094025;28;19908;-74
2022/11/07 09:05:08;;;;;;;;;;;13.50;99.90;;;;;;5092763;28;19912;-74
2022/11/07 09:07:36;;;;;;;;;;;13.50;99.90;;;;;;5093769;28;20331;-75
2022/11/07 09:10:02;;;;;;;;;;;13.50;99.90;;;;;;5092698;28;20429;-75
2022/11/07 09:12:28;;;;;;;;;;;13.50;99.90;;;;;;5093619;28;20008;-74
2022/11/07 09:14:53;;;;;;;;;;;13.50;99.90;;;;;;5093172;28;20006;-75
2022/11/07 09:17:19;;;;;;;;;;;13.50;99.90;;;;;;5091321;28;19912;-74
2022/11/07 09:19:45;;;;;;;;;;;13.50;99.90;;;;;;5093381;28;19958;-74
2022/11/07 09:22:10;;;;;;;;;;;13.50;99.90;;;;;;5092711;28;19953;-73
2022/11/07 09:24:36;;;;;;;;;;;13.50;99.90;;;;;;5093206;28;19986;-73
2022/11/07 09:27:01;;;;;;;;;;;13.60;99.90;;;;;;5092550;28;19915;-74
2022/11/07 09:29:27;;;;;;;;;;;13.70;99.90;;;;;;5093205;28;19908;-74
2022/11/07 09:31:52;;;;;;;;;;;13.70;99.90;;;;;;5091143;28;19919;-74
2022/11/07 09:34:18;;;;;;;;;;;13.70;99.90;;;;;;5091097;28;19920;-74
2022/11/07 09:36:44;;;;;;;;;;;13.70;99.90;;;;;;5099766;28;20759;-74
2022/11/07 09:39:09;;;;;;;;;;;13.70;99.90;;;;;;5112492;28;19912;-75
2022/11/07 09:42:10;;;;;;;;;;;13.70;99.90;;;;;;5092168;28;19908;-75
2022/11/07 09:44:46;;;;;;;;;;;13.70;99.90;;;;;;5049809;28;19909;-74
2022/11/07 09:47:16;;;;;;;;;;;13.70;99.90;;;;;;5081474;28;19909;-75
2022/11/07 09:49:43;;;;;;;;;;;13.70;99.90;;;;;;5092350;28;19958;-74
2022/11/07 09:52:22;;;;;;;;;;;13.70;99.90;;;;;;5092133;28;19912;-76
2022/11/07 09:54:59;;;;;;;;;;;13.70;99.90;;;;;;5092378;28;19968;-74
2022/11/07 09:57:28;;;;;;;;;;;13.80;99.90;;;;;;5092014;28;19916;-74
2022/11/07 09:59:56;;;;;;;;;;;13.90;99.90;;;;;;5091895;28;19966;-74
2022/11/07 10:02:26;;;;;;;;;;;14.00;99.90;;;;;;5091865;28;19969;-75
2022/11/07 10:04:54;;;;;;;;;;;14.00;99.90;;;;;;5092010;28;19955;-73
2022/11/07 10:07:40;;;;;;;;;;;14.00;99.90;;;;;;5091619;28;19904;-75
2022/11/07 10:10:24;;;;;;;;;;;14.00;99.90;;;;;;5089919;28;19912;-75
2022/11/07 10:12:50;;;;;;;;;;;14.10;99.90;;;;;;5091953;28;19938;-74
2022/11/07 10:15:37;;;;;;;;;;;14.10;99.90;;;;;;5091332;28;19912;-75
2022/11/07 10:18:13;;;;;;;;;;;14.30;99.90;;;;;;5090689;28;19957;-75
2022/11/07 10:20:45;;;;;;;;;;;14.30;99.90;;;;;;5091964;28;19908;-74
2022/11/07 10:23:18;;;;;;;;;;;14.30;99.90;;;;;;5091527;28;19931;-76
2022/11/07 10:25:53;;;;;;;;;;;14.30;99.90;;;;;;5092036;28;20334;-75
2022/11/07 10:28:19;;;;;;;;;;;14.40;99.90;;;;;;5091664;28;19908;-76
2022/11/07 10:30:47;;;;;;;;;;;14.50;99.90;;;;;;5090914;28;19908;-75
2022/11/07 10:33:12;;;;;;;;;;;14.50;99.90;;;;;;5090413;28;19912;-75
2022/11/07 10:35:41;;;;;;;;;;;14.50;99.90;;;;;;5092390;28;19916;-75
2022/11/07 10:38:24;;;;;;;;;;;14.50;99.90;;;;;;5091918;28;19908;-74
2022/11/07 10:40:50;;;;;;;;;;;14.60;99.90;;;;;;5092386;28;20380;-74
2022/11/07 10:43:25;;;;;;;;;;;14.60;99.90;;;;;;5096987;28;19908;-75
2022/11/07 10:45:51;;;;;;;;;;;14.60;99.90;;;;;;5112934;28;19912;-74
2022/11/07 10:48:17;;;;;;;;;;;14.60;99.90;;;;;;5111884;28;19949;-74
2022/11/07 10:50:52;;;;;;;;;;;14.60;99.90;;;;;;5112616;28;19954;-74
2022/11/07 10:53:18;;;;;;;;;;;14.70;99.90;;;;;;5110866;28;19912;-75
2022/11/07 10:55:48;;;;;;;;;;;14.80;99.90;;;;;;5112345;28;19922;-74
2022/11/07 10:58:25;;;;;;;;;;;14.80;99.90;;;;;;5113402;28;19908;-74
2022/11/07 11:01:07;;;;;;;;;;;14.90;99.90;;;;;;5112975;28;20407;-74
2022/11/07 11:03:37;;;;;;;;;;;14.90;99.90;;;;;;5112885;28;20376;-74
2022/11/07 11:06:21;;;;;;;;;;;14.90;99.90;;;;;;5112240;28;19912;-75
2022/11/07 11:08:48;;;;;;;;;;;15.00;99.90;;;;;;5112834;28;19929;-74
2022/11/07 11:11:14;;;;;;;;;;;15.10;99.90;;;;;;5112055;28;19930;-74
2022/11/07 11:13:40;;;;;;;;;;;15.30;99.90;;;;;;5112374;28;19912;-75
2022/11/07 11:16:26;;;;;;;;;;;15.40;99.90;;;;;;5111409;28;19919;-77
2022/11/07 11:18:53;;;;;;;;;;;15.40;99.90;;;;;;5110851;28;19908;-75
2022/11/07 11:21:19;;;;;;;;;;;15.40;99.90;;;;;;5110171;28;20003;-75
2022/11/07 11:23:45;;;;;;;;;;;15.60;99.90;;;;;;5112399;28;19966;-75
2022/11/07 11:26:31;;;;;;;;;;;15.60;99.90;;;;;;5112073;28;19908;-73
2022/11/07 11:29:00;;;;;;;;;;;15.70;99.90;;;;;;5114225;28;19912;-74
2022/11/07 11:31:33;;;;;;;;;;;15.70;99.90;;;;;;5115439;28;19908;-75
2022/11/07 11:34:03;;;;;;;;;;;15.80;99.90;;;;;;5116235;28;19990;-75
2022/11/07 11:36:37;;;;;;;;;;;15.80;99.90;;;;;;5115622;28;19943;-74
2022/11/07 11:39:04;;;;;;;;;;;15.80;99.90;;;;;;5112501;28;19916;-78
2022/11/07 11:41:36;;;;;;;;;;;15.70;99.90;;;;;;5094417;28;20003;-74
2022/11/07 11:44:05;;;;;;;;;;;15.60;99.90;;;;;;5110565;28;19943;-75
2022/11/07 11:46:44;;;;;;;;;;;15.50;99.90;;;;;;5115736;28;19907;-76
2022/11/07 11:49:10;;;;;;;;;;;15.50;99.90;;;;;;5115160;28;19911;-74
2022/11/07 11:51:39;;;;;;;;;;;15.50;99.90;;;;;;5115817;28;19953;-75
2022/11/07 11:54:07;;;;;;;;;;;15.50;99.90;;;;;;5114865;28;20402;-77
2022/11/07 11:56:41;;;;;;;;;;;15.40;99.90;;;;;;5115324;28;20314;-75
2022/11/07 11:59:10;;;;;;;;;;;15.40;99.90;;;;;;5114418;28;20673;-75
2022/11/07 12:01:51;;;;;;;;;;;15.40;99.90;;;;;;5113615;28;19919;-75
2022/11/07 12:04:24;;;;;;;;;;;15.40;99.90;;;;;;5114528;28;19908;-75
2022/11/07 12:06:52;;;;;;;;;;;15.40;99.90;;;;;;5115286;28;19931;-74
2022/11/07 12:09:38;;;;;;;;;;;15.40;99.90;;;;;;5114186;28;19907;-75
2022/11/07 12:12:14;;;;;;;;;;;15.40;99.90;;;;;;5114560;28;20018;-75
2022/11/07 12:14:39;;;;;;;;;;;15.40;99.90;;;;;;5114582;28;20289;-75
2022/11/07 12:17:05;;;;;;;;;;;15.40;99.90;;;;;;5113699;28;19912;-76
2022/11/07 12:19:35;;;;;;;;;;;15.50;99.90;;;;;;5114491;28;20258;-75
2022/11/07 12:22:00;;;;;;;;;;;15.40;99.90;;;;;;5114640;28;19908;-74
2022/11/07 12:24:31;;;;;;;;;;;15.50;99.90;;;;;;5114362;28;20504;-73
2022/11/07 12:27:15;;;;;;;;;;;15.50;99.90;;;;;;5114454;28;19960;-75
2022/11/07 12:29:47;;;;;;;;;;;15.50;99.90;;;;;;5114565;28;19908;-75
2022/11/07 12:32:15;;;;;;;;;;;15.50;99.90;;;;;;5113626;28;19934;-75
2022/11/07 12:34:55;;;;;;;;;;;15.50;99.90;;;;;;5114640;28;19916;-75
2022/11/07 12:37:41;;;;;;;;;;;15.50;99.90;;;;;;5113197;28;19907;-74
2022/11/07 12:40:10;;;;;;;;;;;15.50;99.90;;;;;;5112909;28;20288;-76
2022/11/07 12:42:55;;;;;;;;;;;15.50;99.90;;;;;;5114504;28;19914;-75
2022/11/07 12:45:30;;;;;;;;;;;15.50;99.90;;;;;;5104159;28;19956;-76
2022/11/07 12:48:06;;;;;;;;;;;15.50;99.90;;;;;;5103122;28;20010;-75
2022/11/07 12:50:39;;;;;;;;;;;15.50;99.90;;;;;;5114199;28;19908;-76
2022/11/07 12:53:10;;;;;;;;;;;15.60;99.90;;;;;;5112264;28;20464;-76
2022/11/07 12:55:40;;;;;;;;;;;15.60;99.90;;;;;;5112108;28;20441;-75
2022/11/07 12:58:12;;;;;;;;;;;15.60;99.90;;;;;;5112942;28;20012;-77
2022/11/07 13:00:38;;;;;;;;;;;15.60;99.90;;;;;;5113635;28;19930;-75
2022/11/07 13:03:18;;;;;;;;;;;15.70;99.90;;;;;;5113279;28;20006;-75
2022/11/07 13:05:51;;;;;;;;;;;15.70;99.90;;;;;;5113531;28;20007;-76
2022/11/07 13:08:25;;;;;;;;;;;15.80;99.90;;;;;;5112830;28;19908;-76
2022/11/07 13:11:02;;;;;;;;;;;15.80;99.90;;;;;;5113650;28;20365;-75
2022/11/07 13:13:34;;;;;;;;;;;15.80;99.90;;;;;;5113492;28;19912;-74
2022/11/07 13:16:06;;;;;;;;;;;15.80;99.90;;;;;;5113860;28;20011;-75
2022/11/07 13:18:32;;;;;;;;;;;15.90;99.90;;;;;;5113615;28;19907;-75
2022/11/07 13:20:59;;;;;;;;;;;15.90;99.90;;;;;;5113934;28;20259;-74
2022/11/07 13:23:25;;;;;;;;;;;16.00;99.90;;;;;;5112240;28;19908;-75
2022/11/07 13:25:56;;;;;;;;;;;16.10;99.90;;;;;;5113896;28;20332;-75
2022/11/07 13:28:24;;;;;;;;;;;16.20;99.90;;;;;;5113066;28;19918;-75
2022/11/07 13:30:57;;;;;;;;;;;16.20;99.90;;;;;;5112330;28;19916;-74
2022/11/07 13:33:24;;;;;;;;;;;16.20;99.90;;;;;;5113027;28;20345;-76
2022/11/07 13:35:54;;;;;;;;;;;16.20;99.90;;;;;;5113697;28;19916;-75
2022/11/07 13:38:21;;;;;;;;;;;16.20;99.90;;;;;;5112278;28;20324;-75
2022/11/07 13:40:57;;;;;;;;;;;16.20;99.90;;;;;;5113335;28;19908;-75
2022/11/07 13:43:31;;;;;;;;;;;16.20;99.90;;;;;;5112579;28;20347;-74
2022/11/07 13:45:58;;;;;;;;;;;16.30;99.90;;;;;;5113379;28;19907;-74
2022/11/07 13:48:27;;;;;;;;;;;16.30;99.90;;;;;;5112536;28;19911;-75
2022/11/07 13:50:53;;;;;;;;;;;16.30;99.90;;;;;;5113161;28;19907;-75
2022/11/07 13:53:29;;;;;;;;;;;16.30;99.90;;;;;;5112097;28;19919;-75
2022/11/07 13:56:14;;;;;;;;;;;16.30;99.90;;;;;;5101247;28;19934;-74
2022/11/07 13:58:40;;;;;;;;;;;16.40;99.90;;;;;;5112951;28;19908;-75
2022/11/07 14:01:10;;;;;;;;;;;16.40;99.90;;;;;;5112753;28;19927;-75
2022/11/07 14:03:36;;;;;;;;;;;16.40;99.90;;;;;;5112971;28;19911;-74
2022/11/07 14:06:01;;;;;;;;;;;16.30;99.90;;;;;;5113219;28;20436;-74
2022/11/07 14:08:30;;;;;;;;;;;16.20;99.90;;;;;;5112495;28;19939;-74
2022/11/07 14:10:56;;;;;;;;;;;16.10;99.90;;;;;;5112882;28;19915;-74
2022/11/07 14:13:24;;;;;;;;;;;16.00;99.90;;;;;;5111009;28;19912;-73
2022/11/07 14:15:53;;;;;;;;;;;16.00;99.90;;;;;;5113070;28;19912;-73
2022/11/07 14:18:25;;;;;;;;;;;16.00;99.90;;;;;;5111953;28;19915;-74
2022/11/07 14:20:52;;;;;;;;;;;16.10;99.90;;;;;;5112297;28;19908;-73
2022/11/07 14:23:22;;;;;;;;;;;16.10;99.90;;;;;;5112452;28;19907;-75
2022/11/07 14:26:14;;;;;;;;;;;16.10;99.90;;;;;;5112745;28;20010;-74
2022/11/07 14:28:40;;;;;;;;;;;16.20;99.90;;;;;;5112781;28;19907;-75
2022/11/07 14:31:07;;;;;;;;;;;16.10;99.90;;;;;;5113581;28;19914;-74
2022/11/07 14:33:33;;;;;;;;;;;16.10;99.90;;;;;;5112241;28;19915;-76